Time;durP1;ratioP1;P1;durP2;ratioP2;P2;SDS_P1;SDS_P2;PMS_P1;PMS_P2;Temp;Humidity;BMP_temperature;BMP_pressure;BME280_temperature;BME280_humidity;BME280_pressure;Samples;Min_cycle;Max_cycle;Signal;HPM_P1;HPM_P2
2021/08/30 00:01:35;;;;;;;17.08;11.15;;;16.30;99.90;;;;;;5088003;28;20035;-76
2021/08/30 00:04:00;;;;;;;16.90;11.63;;;16.30;99.90;;;;;;5087842;28;20483;-76
2021/08/30 00:06:26;;;;;;;17.02;11.15;;;16.30;99.90;;;;;;5088132;28;20150;-76
2021/08/30 00:08:52;;;;;;;17.15;11.70;;;16.30;99.90;;;;;;5087593;28;20158;-75
2021/08/30 00:11:18;;;;;;;17.33;11.63;;;16.30;99.90;;;;;;5077653;28;20020;-76
2021/08/30 00:13:45;;;;;;;16.80;11.20;;;16.20;99.90;;;;;;5068923;28;20020;-77
2021/08/30 00:16:10;;;;;;;17.73;11.77;;;16.30;99.90;;;;;;5067615;28;20029;-76
2021/08/30 00:18:36;;;;;;;17.52;11.52;;;16.30;99.90;;;;;;5068414;28;20059;-75
2021/08/30 00:21:02;;;;;;;17.75;11.65;;;16.30;99.90;;;;;;5084305;28;20484;-75
2021/08/30 00:23:27;;;;;;;17.65;11.95;;;16.20;99.90;;;;;;5072633;28;20027;-76
2021/08/30 00:25:53;;;;;;;17.27;11.18;;;16.30;99.90;;;;;;5068590;28;20037;-76
2021/08/30 00:28:19;;;;;;;18.98;11.35;;;16.30;99.90;;;;;;5068428;28;20401;-79
2021/08/30 00:30:44;;;;;;;17.75;10.95;;;16.30;99.90;;;;;;5076265;28;20020;-77
2021/08/30 00:33:10;;;;;;;16.77;11.75;;;16.30;99.90;;;;;;5087640;28;20063;-76
2021/08/30 00:35:35;;;;;;;18.23;12.25;;;16.20;99.90;;;;;;5086614;28;20050;-76
2021/08/30 00:38:01;;;;;;;17.65;12.48;;;16.20;99.90;;;;;;5087619;28;20482;-75
2021/08/30 00:40:26;;;;;;;17.55;12.02;;;16.30;99.90;;;;;;5088555;28;20032;-75
2021/08/30 00:42:52;;;;;;;18.27;12.35;;;16.20;99.90;;;;;;5088617;28;20028;-76
2021/08/30 00:45:18;;;;;;;17.25;11.95;;;16.20;99.90;;;;;;5087037;28;20077;-77
2021/08/30 00:47:45;;;;;;;20.95;13.35;;;16.20;99.90;;;;;;5079986;28;20403;-75
2021/08/30 00:50:13;;;;;;;18.10;12.05;;;16.20;99.90;;;;;;5066828;28;20031;-75
2021/08/30 00:52:40;;;;;;;17.90;11.70;;;16.20;99.90;;;;;;5084020;28;20492;-75
2021/08/30 00:55:06;;;;;;;19.73;12.25;;;16.20;99.90;;;;;;5084499;28;20029;-75
2021/08/30 00:57:32;;;;;;;18.50;11.25;;;16.20;99.90;;;;;;5071326;28;20038;-76
2021/08/30 00:59:58;;;;;;;17.85;11.60;;;16.30;99.90;;;;;;5083654;28;20024;-75
2021/08/30 01:02:23;;;;;;;18.92;12.82;;;16.20;99.90;;;;;;5068478;28;20090;-78
2021/08/30 01:04:50;;;;;;;19.30;11.88;;;16.20;99.90;;;;;;5066980;28;20033;-77
2021/08/30 01:07:48;;;;;;;16.15;11.23;;;16.20;99.90;;;;;;5080110;28;20081;-78
2021/08/30 01:10:36;;;;;;;17.55;10.80;;;16.20;99.90;;;;;;5071870;28;20054;-76
2021/08/30 01:13:07;;;;;;;16.33;11.88;;;16.20;99.90;;;;;;5084787;28;20016;-77
2021/08/30 01:15:43;;;;;;;18.15;11.32;;;16.20;99.90;;;;;;5089118;28;20034;-76
2021/08/30 01:18:21;;;;;;;18.48;12.13;;;16.20;99.90;;;;;;5070834;28;20111;-76
2021/08/30 01:21:05;;;;;;;17.50;11.20;;;16.20;99.90;;;;;;5070713;28;20029;-76
2021/08/30 01:23:35;;;;;;;16.55;11.70;;;16.20;99.90;;;;;;5070875;28;20038;-76
2021/08/30 01:26:03;;;;;;;16.40;10.93;;;16.20;99.90;;;;;;5090422;28;20020;-75
2021/08/30 01:28:35;;;;;;;18.13;11.68;;;16.30;99.90;;;;;;5090170;28;20139;-76
2021/08/30 01:31:10;;;;;;;17.75;11.88;;;16.20;99.90;;;;;;5090634;28;20768;-76
2021/08/30 01:33:37;;;;;;;16.95;11.45;;;16.20;99.90;;;;;;5092231;28;20043;-76
2021/08/30 01:36:04;;;;;;;18.27;11.68;;;16.20;99.90;;;;;;5091857;28;20039;-75
2021/08/30 01:38:29;;;;;;;17.98;11.95;;;16.20;99.90;;;;;;5091773;28;20028;-76
2021/08/30 01:40:55;;;;;;;16.20;11.02;;;16.20;99.90;;;;;;5082329;28;20530;-76
2021/08/30 01:43:21;;;;;;;18.98;12.13;;;16.20;99.90;;;;;;5070524;28;20119;-76
2021/08/30 01:45:46;;;;;;;17.42;11.77;;;16.20;99.90;;;;;;5079957;28;20955;-76
2021/08/30 01:48:12;;;;;;;17.10;11.77;;;16.20;99.90;;;;;;5091972;28;20042;-75
2021/08/30 01:50:38;;;;;;;17.02;11.50;;;16.20;99.90;;;;;;5089657;28;20031;-76
2021/08/30 01:53:06;;;;;;;17.38;11.68;;;16.20;99.90;;;;;;5072115;28;20397;-76
2021/08/30 02:00:43;;;;;;;17.17;11.40;;;16.20;99.90;;;;;;5071206;28;20032;-76
2021/08/30 02:03:10;;;;;;;18.02;11.95;;;16.20;99.90;;;;;;5071757;28;20032;-76
2021/08/30 02:05:36;;;;;;;17.77;12.43;;;16.20;99.90;;;;;;5086782;28;20141;-78
2021/08/30 02:08:02;;;;;;;19.02;11.93;;;16.20;99.90;;;;;;5071301;28;20105;-76
2021/08/30 02:10:27;;;;;;;18.27;12.10;;;16.20;99.90;;;;;;5086868;28;20027;-76
2021/08/30 02:12:53;;;;;;;19.90;12.88;;;16.20;99.90;;;;;;5071386;28;20433;-76
2021/08/30 02:15:19;;;;;;;17.75;11.95;;;16.20;99.90;;;;;;5069936;28;20538;-76
2021/08/30 02:17:50;;;;;;;17.65;12.15;;;16.20;99.90;;;;;;5070593;28;20060;-76
2021/08/30 02:20:21;;;;;;;18.08;12.40;;;16.20;99.90;;;;;;5071037;28;20489;-76
2021/08/30 02:22:48;;;;;;;19.92;12.85;;;16.20;99.90;;;;;;5070918;28;20029;-76
2021/08/30 02:25:18;;;;;;;18.10;12.18;;;16.10;99.90;;;;;;5069498;28;20020;-76
2021/08/30 02:27:45;;;;;;;19.23;12.75;;;16.20;99.90;;;;;;5069496;28;20024;-76
2021/08/30 02:30:17;;;;;;;20.20;12.88;;;16.20;99.90;;;;;;5070387;28;20396;-76
2021/08/30 02:32:46;;;;;;;18.98;12.68;;;16.20;99.90;;;;;;5069346;28;20017;-75
2021/08/30 02:35:16;;;;;;;20.25;13.27;;;16.20;99.90;;;;;;5070711;28;20398;-76
2021/08/30 02:37:42;;;;;;;18.77;12.27;;;16.20;99.90;;;;;;5071131;28;20438;-76
2021/08/30 02:40:10;;;;;;;18.95;13.02;;;16.20;99.90;;;;;;5068996;28;20029;-76
2021/08/30 02:42:36;;;;;;;19.55;13.35;;;16.20;99.90;;;;;;5070448;28;20039;-80
2021/08/30 02:45:05;;;;;;;18.23;12.57;;;16.20;99.90;;;;;;5070076;28;20032;-77
2021/08/30 02:47:32;;;;;;;17.33;11.77;;;16.20;99.90;;;;;;5068737;28;20028;-76
2021/08/30 02:49:58;;;;;;;20.58;12.30;;;16.20;99.90;;;;;;5070181;28;20047;-77
2021/08/30 02:52:26;;;;;;;19.73;13.02;;;16.20;99.90;;;;;;5070975;28;20024;-77
2021/08/30 02:54:53;;;;;;;20.73;12.88;;;16.20;99.90;;;;;;5087917;28;20032;-77
2021/08/30 02:57:20;;;;;;;18.90;12.80;;;16.20;99.90;;;;;;5090384;28;20108;-76
2021/08/30 02:59:46;;;;;;;18.63;12.93;;;16.20;99.90;;;;;;5088941;28;20024;-76
2021/08/30 03:02:12;;;;;;;18.33;12.20;;;16.20;99.90;;;;;;5090427;28;20069;-75
2021/08/30 03:04:39;;;;;;;17.85;12.77;;;16.20;99.90;;;;;;5090148;28;20035;-76
2021/08/30 03:07:05;;;;;;;17.95;13.82;;;16.20;99.90;;;;;;5090656;28;20020;-75
2021/08/30 03:09:31;;;;;;;20.13;13.50;;;16.20;99.90;;;;;;5089975;28;20027;-76
2021/08/30 03:11:58;;;;;;;20.70;13.30;;;16.20;99.90;;;;;;5090292;28;20036;-74
2021/08/30 03:14:25;;;;;;;19.55;12.38;;;16.20;99.90;;;;;;5088196;28;20035;-76
2021/08/30 03:17:01;;;;;;;19.50;13.30;;;16.20;99.90;;;;;;5088883;28;20119;-77
2021/08/30 03:19:28;;;;;;;18.13;13.05;;;16.20;99.90;;;;;;5089710;28;20551;-76
2021/08/30 03:21:55;;;;;;;20.73;13.55;;;16.20;99.90;;;;;;5088680;28;20130;-77
2021/08/30 03:24:22;;;;;;;19.65;13.98;;;16.20;99.90;;;;;;5073781;28;20025;-76
2021/08/30 03:26:49;;;;;;;19.73;13.18;;;16.20;99.90;;;;;;5068415;28;20325;-77
2021/08/30 03:29:16;;;;;;;19.98;14.38;;;16.20;99.90;;;;;;5067110;28;20599;-75
2021/08/30 03:31:42;;;;;;;19.60;13.27;;;16.20;99.90;;;;;;5069756;28;20023;-76
2021/08/30 03:34:08;;;;;;;21.05;15.35;;;16.20;99.90;;;;;;5085217;28;20559;-77
2021/08/30 03:36:34;;;;;;;20.33;13.63;;;16.10;99.90;;;;;;5069635;28;20028;-75
2021/08/30 03:39:01;;;;;;;21.25;14.07;;;16.20;99.90;;;;;;5084681;28;20388;-76
2021/08/30 03:41:27;;;;;;;22.10;15.02;;;16.20;99.90;;;;;;5068170;28;20020;-75
2021/08/30 03:43:55;;;;;;;20.63;13.55;;;16.20;99.90;;;;;;5069053;28;20025;-76
2021/08/30 03:46:21;;;;;;;21.13;14.00;;;16.20;99.90;;;;;;5088287;28;20107;-76
2021/08/30 03:48:47;;;;;;;20.63;14.40;;;16.20;99.90;;;;;;5073503;28;20029;-75
2021/08/30 03:51:14;;;;;;;22.83;14.45;;;16.20;99.90;;;;;;5068177;28;20029;-79
2021/08/30 03:53:41;;;;;;;22.50;14.48;;;16.20;99.90;;;;;;5068116;28;20484;-75
2021/08/30 03:56:08;;;;;;;22.00;14.45;;;16.20;99.90;;;;;;5068969;28;20400;-75
2021/08/30 03:58:36;;;;;;;20.60;14.98;;;16.20;99.90;;;;;;5068875;28;20117;-77
2021/08/30 04:01:05;;;;;;;20.02;14.15;;;16.20;99.90;;;;;;5069283;28;20107;-75
2021/08/30 04:03:43;;;;;;;23.70;16.45;;;16.20;99.90;;;;;;5068862;28;20032;-76
2021/08/30 04:06:10;;;;;;;23.10;15.20;;;16.20;99.90;;;;;;5068964;28;20527;-77
2021/08/30 04:08:36;;;;;;;22.90;15.98;;;16.20;99.90;;;;;;5067834;28;20458;-75
2021/08/30 04:11:03;;;;;;;25.50;16.05;;;16.20;99.90;;;;;;5068815;28;20028;-78
2021/08/30 04:13:28;;;;;;;23.15;15.80;;;16.10;99.90;;;;;;5070630;28;20397;-75
2021/08/30 04:15:54;;;;;;;25.20;16.30;;;16.10;99.90;;;;;;5068643;28;20039;-76
2021/08/30 04:18:20;;;;;;;22.15;15.48;;;16.20;99.90;;;;;;5069150;28;20036;-77
2021/08/30 04:20:46;;;;;;;23.65;15.30;;;16.20;99.90;;;;;;5088988;28;20036;-76
2021/08/30 04:23:11;;;;;;;23.27;15.90;;;16.20;99.90;;;;;;5074678;28;20025;-76
2021/08/30 04:25:37;;;;;;;24.13;16.20;;;16.20;99.90;;;;;;5084366;28;20028;-77
2021/08/30 04:28:03;;;;;;;24.85;16.55;;;16.20;99.90;;;;;;5069314;28;20099;-75
2021/08/30 04:30:29;;;;;;;24.63;15.77;;;16.20;99.90;;;;;;5073335;28;20506;-78
2021/08/30 04:32:55;;;;;;;26.27;15.77;;;16.20;99.90;;;;;;5079048;28;20043;-75
2021/08/30 04:35:22;;;;;;;26.25;16.35;;;16.20;99.90;;;;;;5070912;28;20511;-76
2021/08/30 04:37:48;;;;;;;23.85;16.27;;;16.20;99.90;;;;;;5082208;28;20473;-78
2021/08/30 04:40:13;;;;;;;25.17;16.85;;;16.20;99.90;;;;;;5066905;28;20119;-75
2021/08/30 04:42:40;;;;;;;25.15;16.70;;;16.20;99.90;;;;;;5083829;28;20098;-76
2021/08/30 04:45:06;;;;;;;24.98;16.65;;;16.20;99.90;;;;;;5068306;28;20064;-76
2021/08/30 04:47:35;;;;;;;26.10;17.55;;;16.20;99.90;;;;;;5067298;28;20107;-75
2021/08/30 04:50:01;;;;;;;24.63;16.85;;;16.20;99.90;;;;;;5083734;28;20048;-76
2021/08/30 04:52:26;;;;;;;27.27;17.30;;;16.20;99.90;;;;;;5073710;28;20095;-77
2021/08/30 04:54:52;;;;;;;26.92;17.58;;;16.20;99.90;;;;;;5088205;28;20525;-75
2021/08/30 04:57:17;;;;;;;27.20;17.10;;;16.20;99.90;;;;;;5088707;28;20039;-75
2021/08/30 04:59:43;;;;;;;26.83;17.45;;;16.20;99.90;;;;;;5085195;28;20426;-75
2021/08/30 05:02:09;;;;;;;27.85;17.70;;;16.20;99.90;;;;;;5078658;28;20051;-75
2021/08/30 05:04:34;;;;;;;25.25;17.02;;;16.10;99.90;;;;;;5080688;28;20168;-78
2021/08/30 05:07:02;;;;;;;29.35;18.40;;;16.10;99.90;;;;;;5081876;28;20028;-74
2021/08/30 05:09:28;;;;;;;26.30;17.90;;;16.20;99.90;;;;;;5080676;28;20024;-75
2021/08/30 05:11:53;;;;;;;27.98;18.27;;;16.20;99.90;;;;;;5088639;28;20023;-74
2021/08/30 05:14:19;;;;;;;25.90;17.00;;;16.20;99.90;;;;;;5087474;28;20376;-75
2021/08/30 05:16:44;;;;;;;27.63;17.63;;;16.10;99.90;;;;;;5079961;28;20017;-75
2021/08/30 05:19:10;;;;;;;27.38;18.10;;;16.20;99.90;;;;;;5073950;28;20074;-75
2021/08/30 05:21:36;;;;;;;27.13;17.95;;;16.20;99.90;;;;;;5066734;28;20477;-76
2021/08/30 05:24:01;;;;;;;25.42;17.77;;;16.20;99.90;;;;;;5083935;28;20052;-78
2021/08/30 05:26:27;;;;;;;26.02;17.65;;;16.10;99.90;;;;;;5083646;28;20052;-75
2021/08/30 05:28:52;;;;;;;25.38;17.42;;;16.20;99.90;;;;;;5065171;28;20044;-78
2021/08/30 05:31:18;;;;;;;27.55;18.88;;;16.10;99.90;;;;;;5084907;28;20040;-75
2021/08/30 05:33:43;;;;;;;26.85;17.63;;;16.20;99.90;;;;;;5088397;28;20062;-74
2021/08/30 05:36:09;;;;;;;28.52;18.85;;;16.20;99.90;;;;;;5084386;28;20480;-75
2021/08/30 05:38:34;;;;;;;28.63;19.33;;;16.20;99.90;;;;;;5087906;28;20027;-74
2021/08/30 05:41:00;;;;;;;27.95;18.45;;;16.10;99.90;;;;;;5086491;28;20047;-77
2021/08/30 05:43:26;;;;;;;25.65;17.45;;;16.10;99.90;;;;;;5088158;28;20422;-75
2021/08/30 05:45:51;;;;;;;28.52;18.05;;;16.20;99.90;;;;;;5088172;28;20024;-75
2021/08/30 05:48:17;;;;;;;29.30;17.90;;;16.10;99.90;;;;;;5086677;28;20016;-75
2021/08/30 05:50:42;;;;;;;25.92;17.65;;;16.10;99.90;;;;;;5086370;28;20453;-75
2021/08/30 05:53:08;;;;;;;27.80;19.15;;;16.20;99.90;;;;;;5089233;28;20123;-75
2021/08/30 05:55:33;;;;;;;37.85;17.17;;;16.20;99.90;;;;;;5091506;28;20051;-75
2021/08/30 05:57:59;;;;;;;30.58;17.35;;;16.10;99.90;;;;;;5091221;28;20024;-75
2021/08/30 06:00:25;;;;;;;28.05;17.67;;;16.20;99.90;;;;;;5091302;28;20028;-76
2021/08/30 06:02:51;;;;;;;25.80;17.27;;;16.20;99.90;;;;;;5090391;28;20476;-75
2021/08/30 06:05:16;;;;;;;29.33;17.65;;;16.20;99.90;;;;;;5090170;28;20028;-75
2021/08/30 06:07:42;;;;;;;28.20;17.80;;;16.10;99.90;;;;;;5090580;28;20495;-79
2021/08/30 06:10:08;;;;;;;26.48;17.73;;;16.10;99.90;;;;;;5090106;28;20024;-76
2021/08/30 06:12:34;;;;;;;26.73;18.33;;;16.20;99.90;;;;;;5089229;28;20025;-75
2021/08/30 06:15:00;;;;;;;25.77;17.90;;;16.20;99.90;;;;;;5087715;28;20024;-75
2021/08/30 06:17:26;;;;;;;27.35;17.88;;;16.20;99.90;;;;;;5090830;28;20356;-76
2021/08/30 06:19:51;;;;;;;26.17;17.33;;;16.20;99.90;;;;;;5090626;28;20085;-75
2021/08/30 06:22:17;;;;;;;26.15;17.83;;;16.10;99.90;;;;;;5089754;28;20024;-76
2021/08/30 06:24:47;;;;;;;26.90;17.70;;;16.20;99.90;;;;;;5090884;28;20537;-74
2021/08/30 06:27:17;;;;;;;24.70;16.70;;;16.20;99.90;;;;;;5090715;28;20028;-74
2021/08/30 06:29:43;;;;;;;23.42;17.02;;;16.20;99.90;;;;;;5086179;28;20099;-75
2021/08/30 06:32:08;;;;;;;25.17;16.63;;;16.20;99.90;;;;;;5085254;28;20172;-75
2021/08/30 06:34:34;;;;;;;25.70;17.23;;;16.10;99.90;;;;;;5085266;28;20492;-75
2021/08/30 06:37:00;;;;;;;27.02;17.30;;;16.30;99.90;;;;;;5085352;28;20166;-76
2021/08/30 06:39:25;;;;;;;26.50;18.00;;;16.20;99.90;;;;;;5084777;28;20100;-76
2021/08/30 06:41:51;;;;;;;26.83;17.45;;;16.10;99.90;;;;;;5085157;28;20373;-75
2021/08/30 06:44:17;;;;;;;28.52;18.13;;;16.20;99.90;;;;;;5085930;28;20594;-75
2021/08/30 06:46:42;;;;;;;24.95;17.42;;;16.20;99.90;;;;;;5087267;28;20024;-75
2021/08/30 06:49:08;;;;;;;23.73;16.73;;;16.20;99.90;;;;;;5086449;28;20024;-77
2021/08/30 06:51:33;;;;;;;25.88;17.52;;;16.20;99.90;;;;;;5086643;28;20028;-75
2021/08/30 06:53:59;;;;;;;23.38;16.27;;;16.20;99.90;;;;;;5086811;28;20383;-74
2021/08/30 06:56:25;;;;;;;25.58;16.50;;;16.20;99.90;;;;;;5086587;28;20039;-75
2021/08/30 06:58:50;;;;;;;24.10;16.85;;;16.20;99.90;;;;;;5086327;28;20446;-75
2021/08/30 07:01:16;;;;;;;25.30;16.90;;;16.20;99.90;;;;;;5086306;28;20024;-75
2021/08/30 07:03:42;;;;;;;23.98;16.73;;;16.20;99.90;;;;;;5086566;28;20072;-76
2021/08/30 07:06:07;;;;;;;23.52;16.58;;;16.20;99.90;;;;;;5086381;28;20036;-75
2021/08/30 07:08:33;;;;;;;24.27;16.55;;;16.20;99.90;;;;;;5086115;28;20059;-75
2021/08/30 07:10:59;;;;;;;25.08;16.20;;;16.20;99.90;;;;;;5086090;28;20021;-75
2021/08/30 07:13:24;;;;;;;22.92;16.55;;;16.20;99.90;;;;;;5086481;28;20016;-74
2021/08/30 07:15:50;;;;;;;25.08;17.83;;;16.20;99.90;;;;;;5086301;28;20038;-75
2021/08/30 07:18:16;;;;;;;24.67;16.90;;;16.20;99.90;;;;;;5085942;28;20043;-77
2021/08/30 07:20:42;;;;;;;25.63;17.33;;;16.20;99.90;;;;;;5085739;28;20032;-77
2021/08/30 07:23:09;;;;;;;24.55;16.92;;;16.20;99.90;;;;;;5086227;28;20028;-75
2021/08/30 07:25:35;;;;;;;28.08;16.88;;;16.30;99.90;;;;;;5085441;28;20571;-77
2021/08/30 07:28:00;;;;;;;23.65;16.20;;;16.20;99.90;;;;;;5086125;28;20115;-76
2021/08/30 07:30:26;;;;;;;23.60;16.55;;;16.20;99.90;;;;;;5085405;28;20122;-75
2021/08/30 07:32:52;;;;;;;22.45;15.40;;;16.20;99.90;;;;;;5085761;28;20028;-75
2021/08/30 07:35:18;;;;;;;21.92;15.40;;;16.30;99.90;;;;;;5086097;28;20039;-75
2021/08/30 07:37:44;;;;;;;23.08;15.15;;;16.20;99.90;;;;;;5086099;28;20039;-75
2021/08/30 07:40:10;;;;;;;23.80;17.13;;;16.20;99.90;;;;;;5085093;28;20176;-74
2021/08/30 07:42:36;;;;;;;21.83;16.02;;;16.30;99.90;;;;;;5085658;28;20036;-75
2021/08/30 07:45:02;;;;;;;25.00;16.95;;;16.20;99.90;;;;;;5085563;28;20522;-75
2021/08/30 07:47:28;;;;;;;22.23;16.50;;;16.30;99.90;;;;;;5085630;28;20024;-75
2021/08/30 07:49:54;;;;;;;24.60;16.38;;;16.40;99.90;;;;;;5085244;28;20488;-75
2021/08/30 07:52:20;;;;;;;22.10;15.18;;;16.30;99.90;;;;;;5085752;28;20112;-75
2021/08/30 07:54:48;;;;;;;22.17;15.63;;;16.30;99.90;;;;;;5085217;28;20028;-77
2021/08/30 07:57:13;;;;;;;22.70;15.75;;;16.30;99.90;;;;;;5085480;28;20381;-75
2021/08/30 07:59:39;;;;;;;22.90;16.33;;;16.30;99.90;;;;;;5085002;28;20039;-74
2021/08/30 08:02:05;;;;;;;23.02;16.45;;;16.20;99.90;;;;;;5085651;28;20456;-75
2021/08/30 08:04:30;;;;;;;24.48;17.20;;;16.30;99.90;;;;;;5084980;28;20035;-77
2021/08/30 08:06:56;;;;;;;22.05;16.00;;;16.30;99.90;;;;;;5085315;28;20062;-75
2021/08/30 08:09:21;;;;;;;21.55;16.10;;;16.30;99.90;;;;;;5084921;28;20331;-75
2021/08/30 08:11:47;;;;;;;21.48;15.95;;;16.30;99.90;;;;;;5085260;28;20027;-75
2021/08/30 08:14:13;;;;;;;20.55;14.98;;;16.30;99.90;;;;;;5085345;28;20487;-75
2021/08/30 08:16:39;;;;;;;20.85;15.52;;;16.30;99.90;;;;;;5084550;28;20031;-77
2021/08/30 08:19:06;;;;;;;24.55;17.42;;;16.30;99.90;;;;;;5084934;28;20032;-75
2021/08/30 08:21:33;;;;;;;21.23;16.02;;;16.30;99.90;;;;;;5085017;28;20119;-76
2021/08/30 08:24:00;;;;;;;25.30;16.27;;;16.30;99.90;;;;;;5085046;28;20371;-75
2021/08/30 08:26:25;;;;;;;24.23;15.57;;;16.30;99.90;;;;;;5084711;28;20034;-76
2021/08/30 08:28:51;;;;;;;21.95;15.98;;;16.30;99.90;;;;;;5084683;28;20020;-75
2021/08/30 08:31:16;;;;;;;20.55;15.05;;;16.40;99.90;;;;;;5084834;28;20084;-75
2021/08/30 08:33:44;;;;;;;21.85;15.15;;;16.30;99.90;;;;;;5084863;28;20395;-75
2021/08/30 08:36:10;;;;;;;21.58;15.23;;;16.30;99.90;;;;;;5084864;28;20028;-77
2021/08/30 08:38:36;;;;;;;20.33;14.70;;;16.30;99.90;;;;;;5084333;28;20416;-74
2021/08/30 08:41:01;;;;;;;22.08;15.55;;;16.30;99.90;;;;;;5084893;28;20395;-75
2021/08/30 08:43:29;;;;;;;21.00;14.95;;;16.30;99.90;;;;;;5084373;28;20217;-74
2021/08/30 08:45:54;;;;;;;21.77;15.50;;;16.30;99.90;;;;;;5084512;28;20055;-76
2021/08/30 08:48:22;;;;;;;20.88;14.70;;;16.30;99.90;;;;;;5084205;28;20063;-75
2021/08/30 08:50:48;;;;;;;21.95;15.30;;;16.30;99.90;;;;;;5084709;28;20024;-74
2021/08/30 08:53:13;;;;;;;21.90;15.98;;;16.30;99.90;;;;;;5084652;28;20028;-75
2021/08/30 08:55:39;;;;;;;22.75;15.18;;;16.30;99.90;;;;;;5084597;28;20101;-76
2021/08/30 08:58:13;;;;;;;20.42;14.40;;;16.30;99.90;;;;;;5084579;28;20020;-75
2021/08/30 09:00:40;;;;;;;21.13;15.02;;;16.30;99.90;;;;;;5084543;28;20031;-74
2021/08/30 09:03:20;;;;;;;21.23;15.50;;;16.30;99.90;;;;;;5084670;28;20057;-75
2021/08/30 09:05:46;;;;;;;20.13;14.82;;;16.30;99.90;;;;;;5084229;28;20036;-76
2021/08/30 09:08:40;;;;;;;21.92;15.07;;;16.30;99.90;;;;;;5084494;28;20024;-77
2021/08/30 09:11:18;;;;;;;20.23;14.35;;;16.30;99.90;;;;;;5084492;28;20364;-75
2021/08/30 09:13:57;;;;;;;20.42;14.50;;;16.30;99.90;;;;;;5084655;28;20048;-78
2021/08/30 09:16:25;;;;;;;20.70;15.55;;;16.30;99.90;;;;;;5066416;28;20035;-76
2021/08/30 09:19:02;;;;;;;21.15;15.48;;;16.30;99.90;;;;;;5062889;28;20031;-74
2021/08/30 09:21:28;;;;;;;20.23;14.90;;;16.30;99.90;;;;;;5062510;28;20054;-75
2021/08/30 09:23:53;;;;;;;21.65;15.00;;;16.30;99.90;;;;;;5064208;28;20052;-75
2021/08/30 09:26:21;;;;;;;21.20;14.88;;;16.30;99.90;;;;;;5064017;28;20028;-76
2021/08/30 09:28:55;;;;;;;18.88;14.30;;;16.30;99.90;;;;;;5067652;28;20028;-75
2021/08/30 09:31:21;;;;;;;21.17;15.02;;;16.30;99.90;;;;;;5067921;28;20028;-77
2021/08/30 09:33:52;;;;;;;19.90;14.63;;;16.30;99.90;;;;;;5067830;28;20050;-76
2021/08/30 09:36:19;;;;;;;20.30;13.88;;;16.40;99.90;;;;;;5067982;28;20035;-75
2021/08/30 09:38:52;;;;;;;20.25;14.13;;;16.40;99.90;;;;;;5067449;28;20032;-77
2021/08/30 09:41:19;;;;;;;19.42;13.55;;;16.30;99.90;;;;;;5067843;28;20040;-75
2021/08/30 09:43:45;;;;;;;22.98;14.52;;;16.40;99.90;;;;;;5067592;28;20024;-75
2021/08/30 09:46:11;;;;;;;19.75;13.73;;;16.40;99.90;;;;;;5067637;28;20548;-76
2021/08/30 09:48:43;;;;;;;18.50;13.43;;;16.40;99.90;;;;;;5067198;28;20052;-75
2021/08/30 09:51:09;;;;;;;19.17;13.23;;;16.40;99.90;;;;;;5067766;28;20446;-75
2021/08/30 09:53:35;;;;;;;18.65;13.35;;;16.30;99.90;;;;;;5067406;28;20028;-75
2021/08/30 09:56:01;;;;;;;20.23;13.30;;;16.40;99.90;;;;;;5067509;28;20024;-76
2021/08/30 09:58:28;;;;;;;18.20;12.90;;;16.40;99.90;;;;;;5067265;28;20056;-75
2021/08/30 10:00:59;;;;;;;16.98;12.13;;;16.40;99.90;;;;;;5067403;28;20032;-75
2021/08/30 10:03:30;;;;;;;16.67;12.07;;;16.40;99.90;;;;;;5067452;28;20032;-75
2021/08/30 10:05:57;;;;;;;16.55;12.00;;;16.40;99.90;;;;;;5067491;28;20033;-75
2021/08/30 10:08:24;;;;;;;17.15;13.15;;;16.40;99.90;;;;;;5067000;28;20031;-75
2021/08/30 10:10:50;;;;;;;15.68;12.43;;;16.40;99.90;;;;;;5067390;28;20039;-75
2021/08/30 10:13:17;;;;;;;18.08;11.68;;;16.40;99.90;;;;;;5067071;28;20021;-75
2021/08/30 10:15:44;;;;;;;17.45;12.27;;;16.40;99.90;;;;;;5067203;28;20029;-75
2021/08/30 10:18:11;;;;;;;16.80;11.82;;;16.40;99.90;;;;;;5067096;28;20028;-75
2021/08/30 10:20:40;;;;;;;16.35;11.82;;;16.40;99.90;;;;;;5066769;28;20040;-76
2021/08/30 10:23:08;;;;;;;17.35;11.57;;;16.40;99.90;;;;;;5067241;28;20044;-75
2021/08/30 10:25:37;;;;;;;17.50;11.88;;;16.40;99.90;;;;;;5067032;28;20029;-75
2021/08/30 10:28:07;;;;;;;15.63;11.82;;;16.40;99.90;;;;;;5066829;28;20552;-76
2021/08/30 10:30:36;;;;;;;18.08;11.75;;;16.40;99.90;;;;;;5066528;28;20067;-75
2021/08/30 10:33:07;;;;;;;15.35;11.68;;;16.40;99.90;;;;;;5066700;28;20119;-78
2021/08/30 10:35:36;;;;;;;16.73;11.23;;;16.40;99.90;;;;;;5066674;28;20062;-75
2021/08/30 10:38:06;;;;;;;15.65;10.68;;;16.40;99.90;;;;;;5066687;28;20036;-75
2021/08/30 10:40:38;;;;;;;15.63;11.37;;;16.40;99.90;;;;;;5066453;28;20086;-75
2021/08/30 10:43:14;;;;;;;15.70;10.45;;;16.40;99.90;;;;;;5066590;28;20028;-77
2021/08/30 10:45:58;;;;;;;15.05;10.95;;;16.40;99.90;;;;;;5066679;28;20492;-76
2021/08/30 10:48:35;;;;;;;15.70;10.95;;;16.40;99.90;;;;;;5066199;28;20028;-76
2021/08/30 10:51:16;;;;;;;16.52;10.63;;;16.40;99.90;;;;;;5066506;28;20063;-76
2021/08/30 10:53:42;;;;;;;15.07;10.48;;;16.50;99.90;;;;;;5066640;28;20021;-75
2021/08/30 10:56:09;;;;;;;14.60;10.18;;;16.40;99.90;;;;;;5066468;28;20492;-76
2021/08/30 10:58:35;;;;;;;14.23;10.25;;;16.40;99.90;;;;;;5066178;28;20024;-75
2021/08/30 11:01:11;;;;;;;14.55;10.25;;;16.40;99.90;;;;;;5065995;28;20033;-74
2021/08/30 11:03:37;;;;;;;13.50;9.93;;;16.40;99.90;;;;;;5066304;28;20479;-75
2021/08/30 11:06:08;;;;;;;15.10;10.05;;;16.40;99.90;;;;;;5066092;28;20040;-74
2021/08/30 11:08:35;;;;;;;14.57;10.25;;;16.40;99.90;;;;;;5065798;28;20041;-77
2021/08/30 11:11:15;;;;;;;14.20;10.07;;;16.40;99.90;;;;;;5066156;28;20111;-75
2021/08/30 11:13:55;;;;;;;13.73;9.55;;;16.50;99.90;;;;;;5066094;28;20119;-75
2021/08/30 11:16:22;;;;;;;12.93;9.55;;;16.40;99.90;;;;;;5066071;28;20036;-76
2021/08/30 11:18:51;;;;;;;14.35;9.68;;;16.40;99.90;;;;;;5065963;28;20035;-75
2021/08/30 11:21:28;;;;;;;13.18;9.35;;;16.40;99.90;;;;;;5065818;28;20032;-77
2021/08/30 11:23:54;;;;;;;13.98;9.82;;;16.40;99.90;;;;;;5065740;28;20123;-78
2021/08/30 11:26:21;;;;;;;12.95;9.23;;;16.40;99.90;;;;;;5065474;28;20646;-76
2021/08/30 11:29:02;;;;;;;13.80;9.75;;;16.40;99.90;;;;;;5065154;28;20323;-76
2021/08/30 11:31:30;;;;;;;13.90;10.02;;;16.40;99.90;;;;;;5065538;28;20029;-75
2021/08/30 11:33:56;;;;;;;14.07;9.35;;;16.50;99.90;;;;;;5065733;28;20099;-76
2021/08/30 11:36:22;;;;;;;12.98;9.60;;;16.50;99.90;;;;;;5066622;28;20024;-75
2021/08/30 11:38:55;;;;;;;13.80;9.43;;;16.40;99.90;;;;;;5067245;28;20027;-75
2021/08/30 11:41:21;;;;;;;12.75;9.30;;;16.40;99.90;;;;;;5068604;28;20515;-75
2021/08/30 11:44:03;;;;;;;13.05;9.10;;;16.50;99.90;;;;;;5065510;28;20028;-75
2021/08/30 11:46:29;;;;;;;14.93;9.43;;;16.50;99.90;;;;;;5065469;28;20025;-75
2021/08/30 11:48:57;;;;;;;15.40;9.88;;;16.50;99.90;;;;;;5064915;28;20167;-75
2021/08/30 11:51:27;;;;;;;13.73;9.05;;;16.50;99.90;;;;;;5065123;28;20085;-76
2021/08/30 11:53:53;;;;;;;13.25;9.57;;;16.50;99.90;;;;;;5067788;28;20376;-75
2021/08/30 11:56:21;;;;;;;14.10;9.20;;;16.50;99.90;;;;;;5068763;28;20028;-75
2021/08/30 11:58:47;;;;;;;12.98;8.45;;;16.50;99.90;;;;;;5067444;28;20028;-75
2021/08/30 12:01:18;;;;;;;13.77;9.13;;;16.50;99.90;;;;;;5067484;28;20020;-75
2021/08/30 12:03:44;;;;;;;12.65;8.68;;;16.50;99.90;;;;;;5068413;28;20484;-74
2021/08/30 12:06:15;;;;;;;14.48;9.13;;;16.50;99.90;;;;;;5066043;28;20036;-78
2021/08/30 12:08:55;;;;;;;14.35;8.60;;;16.50;99.90;;;;;;5062734;28;20063;-75
2021/08/30 12:11:21;;;;;;;13.50;8.75;;;16.50;99.90;;;;;;5063287;28;20024;-75
2021/08/30 12:16:25;;;;;;;11.98;8.85;;;16.50;99.90;;;;;;5064622;28;20108;-75
2021/08/30 12:18:55;;;;;;;12.82;7.93;;;16.50;99.90;;;;;;5063241;28;20130;-75
2021/08/30 12:21:39;;;;;;;13.07;8.60;;;16.50;99.90;;;;;;5063898;28;20119;-75
2021/08/30 12:24:09;;;;;;;11.27;7.72;;;16.50;99.90;;;;;;5064644;28;20028;-75
2021/08/30 12:26:37;;;;;;;14.95;8.55;;;16.50;99.90;;;;;;5064737;28;20038;-78
2021/08/30 12:29:03;;;;;;;12.00;8.23;;;16.50;99.90;;;;;;5064401;28;20178;-75
2021/08/30 12:31:32;;;;;;;14.48;8.70;;;16.50;99.90;;;;;;5064629;28;20119;-75
2021/08/30 12:34:05;;;;;;;11.05;7.95;;;16.50;99.90;;;;;;5064494;28;20031;-74
2021/08/30 12:36:30;;;;;;;12.75;8.63;;;16.50;99.90;;;;;;5064508;28;20024;-77
2021/08/30 12:38:56;;;;;;;12.32;7.88;;;16.50;99.90;;;;;;5064653;28;20077;-74